createdAt,value
2022-12-18T00:00:13.115Z,87.60
2022-12-18T00:02:46.003Z,87.60
2022-12-18T00:05:15.944Z,87.70
2022-12-18T00:07:44.182Z,87.70
2022-12-18T00:10:15.197Z,87.60
2022-12-18T00:12:46.447Z,87.60
2022-12-18T00:15:14.818Z,87.60
2022-12-18T00:17:47.241Z,87.50
2022-12-18T00:20:21.860Z,87.70
2022-12-18T00:22:50.308Z,87.60
2022-12-18T00:25:18.679Z,87.50
2022-12-18T00:27:47.372Z,87.60
2022-12-18T00:30:16.589Z,87.60
2022-12-18T00:32:46.309Z,87.60
2022-12-18T00:35:16.239Z,87.60
2022-12-18T00:37:44.485Z,87.60
2022-12-18T00:40:14.568Z,88.40
2022-12-18T00:42:56.745Z,87.80
2022-12-18T00:45:30.239Z,87.70
2022-12-18T00:47:59.240Z,87.60
2022-12-18T00:50:28.979Z,87.60
2022-12-18T00:52:57.431Z,87.60
2022-12-18T00:55:25.736Z,87.60
2022-12-18T00:57:55.466Z,87.60
2022-12-18T01:00:24.254Z,87.60
2022-12-18T01:02:53.385Z,87.60
2022-12-18T01:05:21.992Z,87.60
2022-12-18T01:07:52.011Z,87.60
2022-12-18T01:10:21.692Z,87.50
2022-12-18T01:12:50.211Z,87.60
2022-12-18T01:15:20.788Z,87.60
2022-12-18T01:17:49.197Z,87.60
2022-12-18T01:20:17.475Z,87.60
2022-12-18T01:22:47.437Z,87.60
2022-12-18T01:25:17.722Z,87.60
2022-12-18T01:27:46.107Z,87.60
2022-12-18T01:30:14.753Z,87.60
2022-12-18T01:32:43.245Z,87.60
2022-12-18T01:35:11.610Z,87.60
2022-12-18T01:37:39.932Z,88.40
2022-12-18T01:40:09.889Z,87.60
2022-12-18T01:42:39.866Z,87.60
2022-12-18T01:45:24.541Z,87.50
2022-12-18T01:47:55.441Z,87.50
2022-12-18T01:50:26.807Z,87.50
2022-12-18T01:52:58.883Z,87.50
2022-12-18T01:55:30.794Z,87.50
2022-12-18T01:58:02.572Z,87.40
2022-12-18T02:00:31.633Z,87.40
2022-12-18T02:03:00.273Z,87.50
2022-12-18T02:05:36.938Z,87.50
2022-12-18T02:08:12.847Z,87.50
2022-12-18T02:10:50.323Z,87.40
2022-12-18T02:13:32.301Z,87.40
2022-12-18T02:16:08.328Z,87.40
2022-12-18T02:18:40.521Z,87.40
2022-12-18T02:21:17.977Z,87.50
2022-12-18T02:23:54.380Z,87.30
2022-12-18T02:26:31.182Z,87.40
2022-12-18T02:29:04.260Z,87.40
2022-12-18T02:31:38.624Z,87.40
2022-12-18T02:34:10.030Z,87.30
2022-12-18T02:36:43.121Z,87.30
2022-12-18T02:39:15.883Z,87.30
2022-12-18T02:41:58.914Z,87.30
2022-12-18T02:44:27.923Z,87.30
2022-12-18T02:46:56.882Z,87.30
2022-12-18T02:49:37.190Z,87.40
2022-12-18T02:52:15.808Z,88.20
2022-12-18T02:54:54.580Z,87.30
2022-12-18T02:57:35.570Z,87.30
2022-12-18T03:00:08.609Z,87.30
2022-12-18T03:02:45.304Z,87.30
2022-12-18T03:05:17.302Z,87.30
2022-12-18T03:07:51.416Z,87.20
2022-12-18T03:10:25.871Z,87.20
2022-12-18T03:13:01.015Z,87.20
2022-12-18T03:15:33.834Z,87.20
2022-12-18T03:18:13.631Z,87.20
2022-12-18T03:20:45.917Z,87.90
2022-12-18T03:23:22.295Z,87.20
2022-12-18T03:25:56.527Z,87.20
2022-12-18T03:28:32.419Z,87.20
2022-12-18T03:31:07.038Z,87.20
2022-12-18T03:33:41.544Z,87.20
2022-12-18T03:36:10.380Z,87.20
2022-12-18T03:38:39.843Z,87.20
2022-12-18T03:41:17.644Z,87.20
2022-12-18T03:44:14.760Z,87.20
2022-12-18T03:46:52.129Z,87.20
2022-12-18T03:49:25.638Z,87.20
2022-12-18T03:52:03.199Z,87.20
2022-12-18T03:54:33.348Z,87.20
2022-12-18T03:57:15.555Z,87.10
2022-12-18T03:59:46.314Z,87.10
2022-12-18T04:02:18.497Z,87.10
2022-12-18T04:04:50.717Z,87.00
2022-12-18T04:07:20.473Z,87.10
2022-12-18T04:09:50.336Z,87.00
2022-12-18T04:12:19.733Z,87.00
2022-12-18T04:14:50.697Z,87.00
2022-12-18T04:17:19.188Z,86.90
2022-12-18T04:19:48.563Z,87.00
2022-12-18T04:22:16.991Z,87.10
2022-12-18T04:24:49.382Z,87.10
2022-12-18T04:27:26.448Z,87.00
2022-12-18T04:29:56.748Z,87.00
2022-12-18T04:32:25.279Z,87.00
2022-12-18T04:34:53.726Z,87.00
2022-12-18T04:37:22.045Z,87.00
2022-12-18T04:39:51.421Z,87.00
2022-12-18T04:42:29.726Z,86.80
2022-12-18T04:44:59.398Z,86.80
2022-12-18T04:47:27.799Z,86.90
2022-12-18T04:49:55.991Z,86.90
2022-12-18T04:52:27.239Z,86.90
2022-12-18T04:54:55.572Z,86.90
2022-12-18T04:57:23.988Z,86.90
2022-12-18T04:59:52.175Z,86.90
2022-12-18T05:02:21.854Z,86.90
2022-12-18T05:04:50.122Z,86.90
2022-12-18T05:07:18.379Z,86.90
2022-12-18T05:09:46.649Z,86.80
2022-12-18T05:12:14.865Z,86.80
2022-12-18T05:14:43.473Z,86.80
2022-12-18T05:17:11.695Z,86.80
2022-12-18T05:19:44.664Z,86.70
2022-12-18T05:22:14.072Z,86.70
2022-12-18T05:24:42.323Z,86.70
2022-12-18T05:27:10.579Z,86.70
2022-12-18T05:29:38.816Z,86.80
2022-12-18T05:32:07.067Z,86.80
2022-12-18T05:34:35.502Z,86.80
2022-12-18T05:37:05.063Z,86.70
2022-12-18T05:39:33.518Z,86.80
2022-12-18T05:42:01.695Z,86.70
2022-12-18T05:44:30.250Z,86.70
2022-12-18T05:46:58.549Z,86.70
2022-12-18T05:49:26.871Z,86.70
2022-12-18T05:51:55.140Z,86.70
2022-12-18T05:54:24.741Z,86.70
2022-12-18T05:56:52.986Z,86.70
2022-12-18T05:59:21.268Z,86.70
2022-12-18T06:01:49.896Z,86.70
2022-12-18T06:04:18.277Z,86.70
2022-12-18T06:06:46.511Z,86.70
2022-12-18T06:09:14.778Z,86.70
2022-12-18T06:11:44.366Z,86.70
2022-12-18T06:14:12.604Z,86.70
2022-12-18T06:16:40.860Z,86.60
2022-12-18T06:19:09.147Z,86.60
2022-12-18T06:21:37.319Z,86.60
2022-12-18T06:24:06.037Z,86.60
2022-12-18T06:26:34.285Z,86.60
2022-12-18T06:29:04.051Z,86.60
2022-12-18T06:31:32.409Z,86.60
2022-12-18T06:34:00.718Z,86.50
2022-12-18T06:36:32.752Z,86.50
2022-12-18T06:39:01.404Z,86.60
2022-12-18T06:41:29.853Z,86.60
2022-12-18T06:44:00.107Z,86.60
2022-12-18T06:46:30.041Z,86.60
2022-12-18T06:48:58.229Z,86.60
2022-12-18T06:51:27.301Z,86.60
2022-12-18T06:53:55.594Z,86.60
2022-12-18T06:56:24.060Z,86.60
2022-12-18T06:58:52.281Z,86.50
2022-12-18T07:01:20.931Z,86.50
2022-12-18T07:03:55.232Z,86.50
2022-12-18T07:06:25.016Z,86.50
2022-12-18T07:08:54.345Z,86.60
2022-12-18T07:11:22.929Z,86.60
2022-12-18T07:13:51.203Z,86.60
2022-12-18T07:16:24.815Z,86.50
2022-12-18T07:18:56.276Z,86.50
2022-12-18T07:21:25.989Z,86.50
2022-12-18T07:23:54.437Z,86.50
2022-12-18T07:26:24.089Z,86.50
2022-12-18T07:28:52.914Z,86.40
2022-12-18T07:31:23.436Z,86.50
2022-12-18T07:33:53.428Z,86.50
2022-12-18T07:36:25.668Z,86.60
2022-12-18T07:38:54.183Z,86.70
2022-12-18T07:41:23.122Z,86.70
2022-12-18T07:43:51.391Z,86.70
2022-12-18T07:46:19.925Z,86.70
2022-12-18T07:48:49.822Z,86.60
2022-12-18T07:51:19.690Z,86.70
2022-12-18T07:53:52.307Z,86.70
2022-12-18T07:56:30.579Z,86.70
2022-12-18T07:58:59.970Z,86.70
2022-12-18T08:01:31.065Z,86.70
2022-12-18T08:03:59.978Z,86.70
2022-12-18T08:06:28.375Z,86.60
2022-12-18T08:08:58.830Z,86.70
2022-12-18T08:11:28.966Z,86.70
2022-12-18T08:13:57.789Z,86.70
2022-12-18T08:16:26.240Z,86.70
2022-12-18T08:18:55.282Z,86.60
2022-12-18T08:21:25.646Z,86.70
2022-12-18T08:23:55.499Z,86.70
2022-12-18T08:26:26.453Z,86.70
2022-12-18T08:28:56.547Z,86.70
2022-12-18T08:31:25.218Z,86.70
2022-12-18T08:33:55.419Z,86.70
2022-12-18T08:36:24.901Z,86.60
2022-12-18T08:38:53.971Z,86.60
2022-12-18T08:41:23.879Z,86.60
2022-12-18T08:44:09.703Z,86.70
2022-12-18T08:46:40.283Z,86.70
2022-12-18T08:49:10.049Z,86.60
2022-12-18T08:51:38.300Z,86.50
2022-12-18T08:54:07.999Z,87.40
2022-12-18T08:56:37.626Z,86.70
2022-12-18T08:59:06.297Z,86.60
2022-12-18T09:01:35.507Z,86.50
2022-12-18T09:04:03.977Z,86.60
2022-12-18T09:06:33.431Z,86.50
2022-12-18T09:09:01.631Z,86.50
2022-12-18T09:11:31.401Z,86.50
2022-12-18T09:14:02.559Z,87.30
2022-12-18T09:16:32.682Z,86.40
2022-12-18T09:19:02.341Z,86.50
2022-12-18T09:21:36.379Z,86.50
2022-12-18T09:24:08.886Z,86.50
2022-12-18T09:26:37.838Z,86.50
2022-12-18T09:29:09.166Z,86.40
2022-12-18T09:31:38.751Z,86.40
2022-12-18T09:34:10.042Z,86.40
2022-12-18T09:36:38.296Z,86.40
2022-12-18T09:39:08.856Z,86.30
2022-12-18T09:41:45.414Z,86.30
2022-12-18T09:44:24.404Z,86.30
2022-12-18T09:47:00.468Z,86.30
2022-12-18T09:49:33.406Z,86.30
2022-12-18T09:52:07.072Z,86.30
2022-12-18T09:54:40.305Z,86.30
2022-12-18T09:57:17.062Z,86.30
2022-12-18T09:59:51.543Z,86.40
2022-12-18T10:02:23.356Z,86.30
2022-12-18T10:05:03.676Z,86.30
2022-12-18T10:07:41.066Z,86.40
2022-12-18T10:10:16.905Z,86.30
2022-12-18T10:12:53.073Z,86.40
2022-12-18T10:15:29.833Z,86.40
2022-12-18T10:18:04.261Z,86.40
2022-12-18T10:20:37.511Z,86.40
2022-12-18T10:23:15.875Z,86.40
2022-12-18T10:25:52.151Z,86.40
2022-12-18T10:28:22.362Z,86.30
2022-12-18T10:30:52.000Z,86.40
2022-12-18T10:33:22.494Z,86.40
2022-12-18T10:35:55.246Z,86.40
2022-12-18T10:38:26.218Z,86.40
2022-12-18T10:40:56.545Z,86.40
2022-12-18T10:43:27.547Z,86.40
2022-12-18T10:46:12.465Z,86.50
2022-12-18T10:48:49.467Z,86.50
2022-12-18T10:51:24.099Z,86.40
2022-12-18T10:53:58.881Z,86.60
2022-12-18T10:56:30.035Z,86.60
2022-12-18T10:59:00.687Z,86.50
2022-12-18T11:01:33.134Z,86.50
2022-12-18T11:04:04.661Z,86.50
2022-12-18T11:06:35.973Z,86.50
2022-12-18T11:09:13.177Z,86.60
2022-12-18T11:11:50.135Z,86.60
2022-12-18T11:14:23.195Z,86.70
2022-12-18T11:17:25.353Z,86.70
2022-12-18T11:19:43.618Z,86.70
2022-12-18T11:22:22.423Z,86.70
2022-12-18T11:25:30.359Z,86.70
2022-12-18T11:27:51.522Z,86.80
2022-12-18T11:30:25.446Z,86.70
2022-12-18T11:32:58.768Z,86.80
2022-12-18T11:35:37.809Z,86.70
2022-12-18T11:38:12.813Z,86.80
2022-12-18T11:40:46.132Z,86.90
2022-12-18T11:43:18.865Z,86.90
2022-12-18T11:45:53.974Z,86.80
2022-12-18T11:48:27.341Z,86.90
2022-12-18T11:50:57.697Z,86.90
2022-12-18T11:53:27.938Z,86.90
2022-12-18T11:56:04.410Z,86.90
2022-12-18T11:58:46.795Z,86.90
2022-12-18T12:01:32.330Z,87.00
2022-12-18T12:04:33.500Z,86.90
2022-12-18T12:07:13.990Z,87.80
2022-12-18T12:09:51.749Z,87.00
2022-12-18T12:12:48.657Z,87.00
2022-12-18T12:15:26.879Z,87.00
2022-12-18T12:18:01.084Z,87.10
2022-12-18T12:20:44.375Z,87.40
2022-12-18T12:23:27.459Z,87.10
2022-12-18T12:26:03.382Z,87.20
2022-12-18T12:29:00.347Z,87.20
2022-12-18T12:31:44.275Z,87.20
2022-12-18T12:34:20.261Z,87.20
2022-12-18T12:37:06.234Z,87.30
2022-12-18T12:39:38.523Z,87.30
2022-12-18T12:42:32.884Z,87.30
2022-12-18T12:45:06.910Z,87.30
2022-12-18T12:47:42.827Z,87.30
2022-12-18T12:50:18.338Z,87.30
2022-12-18T12:52:51.689Z,88.20
2022-12-18T12:55:23.142Z,87.30
2022-12-18T12:58:01.772Z,88.10
2022-12-18T13:00:36.376Z,87.30
2022-12-18T13:03:14.262Z,87.30
2022-12-18T13:05:47.925Z,87.30
2022-12-18T13:08:27.477Z,87.30
2022-12-18T13:11:14.630Z,87.30
2022-12-18T13:13:52.706Z,87.30
2022-12-18T13:16:22.678Z,87.30
2022-12-18T13:18:52.370Z,87.30
2022-12-18T13:21:28.004Z,87.30
2022-12-18T13:23:58.387Z,87.40
2022-12-18T13:26:36.822Z,87.30
2022-12-18T13:29:07.023Z,87.30
2022-12-18T13:32:21.133Z,87.30
2022-12-18T13:35:11.285Z,87.30
2022-12-18T13:37:44.928Z,87.30
2022-12-18T13:40:57.176Z,87.30
2022-12-18T13:43:37.327Z,87.30
2022-12-18T13:46:23.192Z,87.30
2022-12-18T13:48:55.875Z,87.30
2022-12-18T13:51:26.051Z,87.20
2022-12-18T13:53:57.158Z,87.20
2022-12-18T13:56:27.093Z,87.20
2022-12-18T13:59:15.875Z,87.30
2022-12-18T14:01:47.953Z,87.20
2022-12-18T14:04:22.938Z,87.20
2022-12-18T14:06:54.341Z,87.20
2022-12-18T14:09:27.685Z,87.30
2022-12-18T14:12:18.286Z,87.30
2022-12-18T14:14:50.441Z,87.20
2022-12-18T14:17:22.010Z,87.20
2022-12-18T14:19:53.267Z,87.20
2022-12-18T14:22:28.699Z,87.20
2022-12-18T14:25:16.523Z,87.20
2022-12-18T14:27:47.059Z,87.20
2022-12-18T14:30:34.084Z,87.20
2022-12-18T14:33:05.375Z,87.30
2022-12-18T14:35:34.200Z,88.10
2022-12-18T14:38:27.866Z,87.30
2022-12-18T14:41:06.327Z,87.40
2022-12-18T14:43:35.970Z,87.40
2022-12-18T14:46:07.335Z,87.30
2022-12-18T14:48:41.531Z,87.60
2022-12-18T14:51:18.636Z,87.60
2022-12-18T14:53:54.086Z,87.60
2022-12-18T14:56:25.207Z,87.60
2022-12-18T14:58:56.264Z,87.60
2022-12-18T15:01:29.414Z,87.60
2022-12-18T15:03:59.166Z,87.60
2022-12-18T15:06:36.077Z,87.50
2022-12-18T15:09:07.809Z,87.50
2022-12-18T15:11:38.437Z,87.50
2022-12-18T15:14:41.730Z,87.60
2022-12-18T15:17:20.681Z,87.60
2022-12-18T15:19:50.481Z,87.60
2022-12-18T15:22:22.806Z,87.60
2022-12-18T15:24:51.457Z,87.70
2022-12-18T15:27:27.009Z,87.60
2022-12-18T15:30:23.990Z,87.70
2022-12-18T15:32:55.553Z,87.60
2022-12-18T15:35:25.602Z,87.70
2022-12-18T15:37:54.611Z,87.60
2022-12-18T15:40:24.902Z,87.50
2022-12-18T15:43:13.917Z,87.60
2022-12-18T15:45:42.153Z,88.40
2022-12-18T15:48:22.143Z,87.70
2022-12-18T15:50:51.913Z,87.60
2022-12-18T15:53:20.604Z,87.70
2022-12-18T15:56:06.001Z,87.70
2022-12-18T15:58:34.904Z,87.70
2022-12-18T16:01:03.876Z,87.70
2022-12-18T16:03:33.986Z,87.70
2022-12-18T16:06:03.070Z,87.80
2022-12-18T16:08:32.870Z,87.80
2022-12-18T16:11:01.897Z,87.90
2022-12-18T16:13:30.157Z,87.90
2022-12-18T16:15:58.525Z,87.90
2022-12-18T16:18:26.914Z,87.90
2022-12-18T16:20:56.635Z,87.90
2022-12-18T16:23:25.385Z,88.00
2022-12-18T16:25:53.684Z,88.00
2022-12-18T16:28:22.047Z,88.00
2022-12-18T16:30:50.389Z,88.00
2022-12-18T16:33:18.614Z,88.80
2022-12-18T16:35:53.935Z,88.00
2022-12-18T16:38:23.581Z,88.00
2022-12-18T16:41:09.383Z,87.90
2022-12-18T16:43:37.657Z,88.10
2022-12-18T16:46:06.148Z,88.10
2022-12-18T16:48:34.485Z,88.10
2022-12-18T16:51:05.102Z,88.20
2022-12-18T16:53:35.565Z,88.10
2022-12-18T16:56:05.176Z,88.10
2022-12-18T16:58:34.750Z,88.10
2022-12-18T17:01:08.742Z,88.10
2022-12-18T17:03:37.153Z,88.10
2022-12-18T17:06:06.119Z,88.10
2022-12-18T17:08:35.718Z,88.10
2022-12-18T17:11:08.482Z,88.20
2022-12-18T17:13:37.662Z,88.20
2022-12-18T17:16:07.466Z,88.10
2022-12-18T17:18:36.138Z,88.10
2022-12-18T17:21:06.981Z,88.20
2022-12-18T17:23:37.769Z,88.10
2022-12-18T17:26:07.327Z,88.10
2022-12-18T17:28:36.224Z,88.20
2022-12-18T17:31:12.557Z,88.20
2022-12-18T17:33:41.109Z,88.20
2022-12-18T17:36:10.353Z,88.20
2022-12-18T17:38:43.691Z,88.20
2022-12-18T17:41:13.000Z,88.20
2022-12-18T17:43:45.695Z,88.20
2022-12-18T17:46:15.619Z,88.20
2022-12-18T17:48:44.409Z,88.20
2022-12-18T17:51:13.096Z,88.20
2022-12-18T17:53:43.155Z,88.20
2022-12-18T17:56:14.787Z,88.20
2022-12-18T17:58:43.584Z,88.30
2022-12-18T18:01:15.079Z,89.10
2022-12-18T18:03:45.339Z,88.30
2022-12-18T18:06:15.500Z,88.30
2022-12-18T18:08:45.230Z,88.30
2022-12-18T18:11:33.632Z,88.30
2022-12-18T18:14:02.425Z,88.30
2022-12-18T18:16:32.424Z,88.30
2022-12-18T18:19:03.935Z,88.30
2022-12-18T18:21:32.481Z,88.30
2022-12-18T18:24:03.812Z,88.30
2022-12-18T18:26:33.190Z,88.30
2022-12-18T18:29:03.341Z,88.30
2022-12-18T18:31:40.184Z,88.30
2022-12-18T18:34:16.058Z,88.40
2022-12-18T18:36:45.450Z,88.30
2022-12-18T18:39:15.980Z,88.30
2022-12-18T18:41:47.800Z,88.30
2022-12-18T18:44:17.021Z,88.40
2022-12-18T18:46:45.258Z,88.30
2022-12-18T18:49:14.040Z,88.30
2022-12-18T18:51:42.488Z,88.30
2022-12-18T18:54:11.537Z,88.30
2022-12-18T18:57:11.797Z,88.40
2022-12-18T18:59:32.055Z,88.30
2022-12-18T19:02:04.542Z,88.30
2022-12-18T19:04:33.756Z,88.30
2022-12-18T19:07:02.309Z,88.30
2022-12-18T19:09:31.307Z,89.20
2022-12-18T19:12:18.520Z,88.30
2022-12-18T19:14:46.886Z,88.20
2022-12-18T19:17:15.230Z,88.30
2022-12-18T19:19:43.763Z,88.30
2022-12-18T19:22:12.163Z,88.30
2022-12-18T19:24:40.536Z,88.30
2022-12-18T19:27:10.236Z,88.30
2022-12-18T19:29:38.594Z,88.30
2022-12-18T19:32:06.975Z,88.40
2022-12-18T19:34:38.202Z,88.40
2022-12-18T19:37:06.627Z,88.30
2022-12-18T19:39:34.870Z,88.30
2022-12-18T19:42:03.166Z,88.40
2022-12-18T19:44:32.809Z,88.40
2022-12-18T19:47:01.119Z,88.40
2022-12-18T19:49:30.377Z,88.40
2022-12-18T19:51:58.776Z,88.30
2022-12-18T19:54:27.153Z,88.40
2022-12-18T19:56:56.131Z,88.40
2022-12-18T19:59:24.443Z,88.30
2022-12-18T20:01:54.582Z,88.40
2022-12-18T20:04:23.611Z,88.40
2022-12-18T20:06:53.820Z,88.30
2022-12-18T20:09:22.562Z,88.40
2022-12-18T20:11:51.035Z,88.40
2022-12-18T20:14:23.131Z,88.50
2022-12-18T20:16:54.367Z,88.40
2022-12-18T20:19:23.495Z,89.20
2022-12-18T20:21:52.572Z,88.40
2022-12-18T20:24:20.897Z,88.40
2022-12-18T20:26:49.244Z,88.40
2022-12-18T20:29:17.456Z,88.40
2022-12-18T20:31:45.678Z,88.40
2022-12-18T20:34:15.380Z,88.40
2022-12-18T20:36:44.377Z,88.40
2022-12-18T20:39:13.391Z,89.30
2022-12-18T20:41:42.952Z,88.40
2022-12-18T20:44:22.976Z,88.30
2022-12-18T20:46:53.617Z,88.40
2022-12-18T20:49:23.857Z,88.40
2022-12-18T20:51:53.313Z,88.40
2022-12-18T20:54:22.237Z,88.40
2022-12-18T20:56:51.034Z,88.40
2022-12-18T20:59:19.830Z,88.40
2022-12-18T21:01:49.448Z,88.50
2022-12-18T21:04:19.228Z,88.40
2022-12-18T21:06:54.157Z,88.40
2022-12-18T21:09:26.143Z,88.40
2022-12-18T21:12:14.292Z,88.40
2022-12-18T21:14:43.274Z,88.40
2022-12-18T21:17:12.312Z,88.40
2022-12-18T21:19:40.724Z,88.50
2022-12-18T21:22:11.818Z,88.40
2022-12-18T21:24:40.317Z,88.40
2022-12-18T21:27:08.534Z,89.10
2022-12-18T21:29:38.857Z,88.40
2022-12-18T21:32:09.100Z,88.40
2022-12-18T21:34:38.185Z,88.40
2022-12-18T21:37:06.623Z,88.40
2022-12-18T21:39:36.269Z,88.40
2022-12-18T21:42:22.089Z,88.50
2022-12-18T21:44:50.473Z,88.40
2022-12-18T21:47:22.692Z,88.40
2022-12-18T21:49:52.967Z,88.40
2022-12-18T21:52:25.731Z,88.40
2022-12-18T21:55:08.456Z,88.40
2022-12-18T21:57:37.413Z,88.40
2022-12-18T22:00:06.970Z,88.40
2022-12-18T22:02:41.236Z,88.40
2022-12-18T22:05:10.241Z,88.40
2022-12-18T22:07:39.443Z,88.40
2022-12-18T22:10:10.121Z,88.40
2022-12-18T22:12:44.452Z,88.40
2022-12-18T22:15:21.609Z,88.40
2022-12-18T22:17:51.313Z,88.40
2022-12-18T22:20:27.430Z,88.50
2022-12-18T22:22:55.658Z,88.40
2022-12-18T22:25:25.407Z,88.50
2022-12-18T22:28:07.667Z,89.30
2022-12-18T22:30:36.088Z,88.40
2022-12-18T22:33:04.559Z,88.40
2022-12-18T22:35:32.736Z,88.40
2022-12-18T22:38:01.333Z,88.50
2022-12-18T22:40:31.299Z,88.50
2022-12-18T22:42:59.627Z,88.40
2022-12-18T22:45:28.424Z,88.50
2022-12-18T22:47:56.871Z,88.40
2022-12-18T22:50:25.129Z,88.40
2022-12-18T22:52:53.317Z,88.50
2022-12-18T22:55:21.603Z,88.40
2022-12-18T22:57:51.372Z,88.40
2022-12-18T23:00:23.829Z,88.50
2022-12-18T23:02:59.222Z,88.40
2022-12-18T23:05:30.229Z,88.50
2022-12-18T23:07:59.251Z,88.50
2022-12-18T23:10:27.986Z,88.40
2022-12-18T23:12:57.536Z,88.40
2022-12-18T23:15:28.262Z,88.40
2022-12-18T23:17:58.914Z,88.50
2022-12-18T23:20:28.278Z,88.40
2022-12-18T23:22:56.652Z,88.60
2022-12-18T23:25:24.979Z,88.50
2022-12-18T23:27:53.314Z,88.50
2022-12-18T23:30:22.952Z,88.50
2022-12-18T23:32:51.362Z,88.50
2022-12-18T23:35:19.863Z,88.50
2022-12-18T23:38:04.182Z,88.40
2022-12-18T23:40:32.417Z,88.50
2022-12-18T23:43:01.080Z,88.50
2022-12-18T23:45:30.757Z,88.50
2022-12-18T23:47:58.988Z,88.50
2022-12-18T23:50:29.574Z,88.50
2022-12-18T23:53:00.786Z,88.40
2022-12-18T23:55:34.396Z,88.40
2022-12-18T23:58:03.083Z,89.30
